Terminal Aerodrome Forecast
Issued by NWS

Home | Current Version | Previous Version | Text Only | Print | Product List | Glossary On
Versions: 1 2 3 4 5 6 7 8 9 10 11 12 13 14 15 16 17 18 19 20 21 22 23 24 25 26 27 28 29 30 31 32 33 34 35 36 37 38 39 40 41
000
FTUS43 KDLH 260200 AAB
TAFHIB
TAF AMD
KHIB 260259Z 2603/2624 31006KT P6SM SCT028 OVC035
      TEMPO 2603/2605 30010G18KT -SHRA BKN028
     FM260500 33006KT P6SM BKN025
     FM261500 30009G15KT P6SM SCT025
     FM261900 29013G20KT P6SM BKN045=

USA.gov is the U.S. government's official web portal to all federal, state and local government web resources and services.